createdAt,value
2022-08-14T00:02:33.248Z,16.88
2022-08-14T00:05:33.526Z,16.78
2022-08-14T00:08:44.408Z,16.72
2022-08-14T00:11:43.619Z,16.70
2022-08-14T00:14:41.061Z,16.85
2022-08-14T00:17:48.448Z,16.89
2022-08-14T00:20:51.158Z,16.73
2022-08-14T00:23:53.996Z,16.80
2022-08-14T00:26:52.647Z,16.64
2022-08-14T00:29:51.690Z,16.73
2022-08-14T00:32:50.610Z,16.70
2022-08-14T00:36:36.650Z,16.59
2022-08-14T00:39:15.125Z,16.63
2022-08-14T00:42:52.334Z,16.98
2022-08-14T00:45:37.038Z,16.88
2022-08-14T00:48:36.935Z,16.75
2022-08-14T00:51:38.328Z,16.70
2022-08-14T00:54:38.837Z,16.60
2022-08-14T00:57:39.129Z,16.59
2022-08-14T01:00:47.282Z,16.63
2022-08-14T01:03:52.707Z,16.75
2022-08-14T01:06:51.999Z,16.51
2022-08-14T01:09:58.835Z,16.54
2022-08-14T01:12:55.998Z,16.72
2022-08-14T01:16:02.684Z,16.86
2022-08-14T01:19:19.854Z,16.66
2022-08-14T01:22:18.809Z,16.71
2022-08-14T01:25:16.027Z,16.70
2022-08-14T01:28:47.211Z,16.60
2022-08-14T01:31:38.313Z,16.25
2022-08-14T01:35:18.069Z,16.24
2022-08-14T01:37:56.308Z,16.18
2022-08-14T01:40:54.335Z,16.24
2022-08-14T01:44:02.409Z,16.25
2022-08-14T01:47:05.890Z,15.93
2022-08-14T01:50:05.781Z,15.74
2022-08-14T01:53:03.445Z,16.03
2022-08-14T01:56:05.305Z,16.06
2022-08-14T01:59:26.763Z,16.04
2022-08-14T02:02:37.328Z,16.07
2022-08-14T02:05:38.608Z,16.06
2022-08-14T02:08:37.951Z,16.18
2022-08-14T02:11:54.375Z,16.05
2022-08-14T02:15:00.716Z,16.09
2022-08-14T02:18:01.498Z,16.15
2022-08-14T02:20:59.549Z,16.10
2022-08-14T02:23:57.038Z,15.95
2022-08-14T02:26:58.361Z,16.10
2022-08-14T02:30:12.267Z,15.99
2022-08-14T02:33:10.822Z,15.93
2022-08-14T02:37:02.552Z,15.88
2022-08-14T02:39:27.756Z,15.96
2022-08-14T02:42:37.202Z,15.92
2022-08-14T02:45:38.784Z,15.98
2022-08-14T02:49:03.121Z,15.96
2022-08-14T02:52:00.026Z,16.00
2022-08-14T02:54:57.505Z,15.93
2022-08-14T02:58:03.272Z,15.91
2022-08-14T03:01:01.471Z,15.74
2022-08-14T03:03:59.517Z,16.03
2022-08-14T03:07:06.687Z,16.03
2022-08-14T03:10:26.968Z,16.00
2022-08-14T03:13:23.939Z,15.91
2022-08-14T03:16:26.906Z,15.76
2022-08-14T03:19:23.921Z,15.71
2022-08-14T03:22:20.960Z,15.70
2022-08-14T03:25:18.398Z,15.71
2022-08-14T03:28:32.882Z,15.77
2022-08-14T03:31:30.498Z,15.59
2022-08-14T03:34:47.677Z,15.53
2022-08-14T03:39:10.505Z,15.80
2022-08-14T03:41:01.791Z,15.78
2022-08-14T03:45:26.419Z,15.62
2022-08-14T03:47:19.804Z,15.58
2022-08-14T03:50:24.273Z,15.63
2022-08-14T03:53:28.137Z,15.60
2022-08-14T03:56:30.058Z,15.54
2022-08-14T03:59:28.634Z,15.54
2022-08-14T04:02:32.296Z,15.47
2022-08-14T04:05:43.149Z,15.56
2022-08-14T04:08:45.718Z,15.50
2022-08-14T04:11:43.745Z,15.43
2022-08-14T04:14:40.678Z,15.56
2022-08-14T04:17:39.078Z,15.49
2022-08-14T04:20:54.808Z,15.54
2022-08-14T04:23:57.346Z,15.54
2022-08-14T04:26:55.650Z,15.53
2022-08-14T04:29:53.267Z,15.61
2022-08-14T04:33:01.886Z,15.72
2022-08-14T04:36:01.509Z,15.65
2022-08-14T04:39:17.823Z,15.64
2022-08-14T04:42:33.574Z,15.62
2022-08-14T04:45:36.313Z,15.71
2022-08-14T04:48:42.873Z,15.81
2022-08-14T04:51:46.939Z,15.80
2022-08-14T04:54:54.474Z,15.79
2022-08-14T04:57:52.159Z,15.89
2022-08-14T05:00:50.926Z,16.03
2022-08-14T05:03:49.623Z,16.21
2022-08-14T05:06:49.345Z,15.84
2022-08-14T05:09:47.971Z,15.86
2022-08-14T05:13:14.231Z,15.92
2022-08-14T05:16:05.902Z,16.02
2022-08-14T05:19:17.738Z,16.11
2022-08-14T05:22:21.653Z,16.01
2022-08-14T05:25:20.051Z,16.05
2022-08-14T05:28:22.096Z,16.26
2022-08-14T05:31:20.783Z,16.26
2022-08-14T05:34:18.016Z,16.38
2022-08-14T05:37:15.944Z,16.45
2022-08-14T05:40:12.822Z,16.36
2022-08-14T05:43:10.425Z,16.48
2022-08-14T05:46:18.432Z,16.50
2022-08-14T05:49:15.444Z,16.53
2022-08-14T05:52:17.982Z,16.57
2022-08-14T05:55:15.630Z,16.76
2022-08-14T05:58:13.899Z,16.74
2022-08-14T06:01:13.670Z,16.89
2022-08-14T06:04:11.366Z,16.93
2022-08-14T06:07:09.486Z,17.01
2022-08-14T06:10:09.598Z,17.07
2022-08-14T06:13:07.788Z,17.04
2022-08-14T06:16:06.274Z,17.13
2022-08-14T06:19:03.150Z,17.21
2022-08-14T06:22:02.146Z,17.28
2022-08-14T06:24:59.654Z,17.56
2022-08-14T06:28:00.901Z,18.01
2022-08-14T06:31:00.941Z,17.82
2022-08-14T06:35:09.438Z,17.82
2022-08-14T06:37:17.064Z,18.00
2022-08-14T06:40:27.345Z,18.30
2022-08-14T06:43:31.779Z,18.15
2022-08-14T06:46:34.135Z,18.37
2022-08-14T06:49:42.722Z,18.46
2022-08-14T06:52:50.309Z,18.59
2022-08-14T06:55:58.077Z,18.64
2022-08-14T06:58:56.421Z,18.65
2022-08-14T07:02:13.678Z,18.69
2022-08-14T07:05:33.644Z,18.85
2022-08-14T07:08:32.176Z,19.06
2022-08-14T07:11:29.622Z,19.13
2022-08-14T07:14:26.670Z,19.31
2022-08-14T07:17:23.509Z,19.59
2022-08-14T07:20:31.412Z,19.49
2022-08-14T07:23:31.429Z,19.41
2022-08-14T07:26:29.519Z,19.49
2022-08-14T07:29:26.551Z,19.46
2022-08-14T07:32:34.043Z,19.64
2022-08-14T07:35:42.815Z,19.79
2022-08-14T07:38:52.329Z,20.01
2022-08-14T07:41:49.618Z,20.14
2022-08-14T07:44:50.387Z,20.30
2022-08-14T07:47:47.662Z,20.64
2022-08-14T07:50:46.444Z,20.66
2022-08-14T07:53:44.998Z,20.90
2022-08-14T07:56:48.750Z,20.85
2022-08-14T07:59:49.423Z,20.80
2022-08-14T08:02:53.129Z,21.02
2022-08-14T08:05:54.022Z,21.50
2022-08-14T08:09:01.270Z,21.96
2022-08-14T08:12:04.956Z,21.99
2022-08-14T08:15:07.139Z,21.69
2022-08-14T08:18:27.257Z,21.56
2022-08-14T08:21:27.059Z,21.67
2022-08-14T08:24:24.122Z,21.60
2022-08-14T08:27:21.436Z,22.16
2022-08-14T08:30:18.519Z,22.45
2022-08-14T08:33:16.423Z,23.52
2022-08-14T08:36:18.881Z,23.39
2022-08-14T08:39:22.793Z,23.43
2022-08-14T08:42:31.478Z,24.46
2022-08-14T08:45:36.752Z,24.40
2022-08-14T08:48:53.592Z,23.42
2022-08-14T08:51:51.047Z,23.06
2022-08-14T08:54:55.950Z,24.29
2022-08-14T08:58:01.186Z,24.64
2022-08-14T09:01:00.580Z,25.19
2022-08-14T09:04:04.572Z,24.64
2022-08-14T09:07:11.664Z,24.36
2022-08-14T09:10:09.108Z,24.22
2022-08-14T09:13:11.566Z,24.55
2022-08-14T09:16:19.302Z,24.21
2022-08-14T09:19:17.832Z,24.14
2022-08-14T09:22:35.405Z,24.06
2022-08-14T09:25:59.869Z,24.56
2022-08-14T09:28:49.904Z,24.26
2022-08-14T09:31:53.423Z,24.19
2022-08-14T09:35:13.028Z,25.15
2022-08-14T09:38:31.994Z,25.69
2022-08-14T09:42:17.470Z,25.45
2022-08-14T09:45:40.037Z,24.87
2022-08-14T09:49:04.125Z,25.31
2022-08-14T09:52:33.161Z,26.09
2022-08-14T09:55:41.622Z,25.59
2022-08-14T09:58:46.266Z,25.27
2022-08-14T10:01:46.156Z,25.46
2022-08-14T10:05:11.586Z,26.31
2022-08-14T10:08:26.299Z,26.26
2022-08-14T10:11:34.958Z,25.69
2022-08-14T10:14:36.682Z,25.89
2022-08-14T10:17:38.873Z,26.27
2022-08-14T10:21:01.570Z,26.88
2022-08-14T10:23:58.556Z,26.41
2022-08-14T10:27:00.955Z,25.88
2022-08-14T10:30:04.649Z,26.91
2022-08-14T10:33:01.525Z,26.35
2022-08-14T10:36:03.875Z,26.15
2022-08-14T10:39:04.935Z,26.31
2022-08-14T10:42:16.608Z,26.49
2022-08-14T10:45:25.574Z,26.59
2022-08-14T10:48:24.131Z,28.09
2022-08-14T10:51:41.666Z,28.78
2022-08-14T10:54:47.314Z,29.09
2022-08-14T10:57:51.203Z,28.92
2022-08-14T11:01:00.961Z,27.24
2022-08-14T11:03:58.744Z,27.69
2022-08-14T11:06:56.815Z,27.35
2022-08-14T11:10:00.268Z,27.85
2022-08-14T11:12:57.713Z,27.86
2022-08-14T11:16:00.443Z,28.02
2022-08-14T11:18:59.637Z,27.95
2022-08-14T11:22:00.969Z,28.09
2022-08-14T11:25:06.452Z,28.78
2022-08-14T11:28:05.691Z,27.47
2022-08-14T11:31:15.671Z,26.82
2022-08-14T11:34:32.199Z,26.96
2022-08-14T11:37:40.561Z,26.67
2022-08-14T11:40:39.533Z,26.77
2022-08-14T11:43:57.705Z,27.50
2022-08-14T11:46:55.815Z,27.09
2022-08-14T11:49:53.367Z,27.09
2022-08-14T11:52:57.253Z,26.77
2022-08-14T11:56:04.389Z,26.95
2022-08-14T11:59:03.570Z,26.71
2022-08-14T12:03:00.142Z,27.94
2022-08-14T12:05:42.423Z,28.39
2022-08-14T12:08:40.557Z,28.89
2022-08-14T12:11:44.266Z,28.98
2022-08-14T12:15:00.158Z,27.53
2022-08-14T12:17:58.220Z,27.41
2022-08-14T12:20:59.955Z,27.65
2022-08-14T12:24:09.599Z,27.93
2022-08-14T12:27:53.324Z,27.83
2022-08-14T12:30:53.574Z,27.64
2022-08-14T12:34:10.259Z,27.26
2022-08-14T12:37:09.181Z,27.81
2022-08-14T12:40:14.122Z,27.90
2022-08-14T12:43:19.204Z,28.49
2022-08-14T12:46:27.198Z,28.67
2022-08-14T12:49:26.017Z,28.08
2022-08-14T12:52:45.401Z,27.78
2022-08-14T12:56:22.417Z,27.20
2022-08-14T12:59:18.516Z,26.83
2022-08-14T13:02:39.174Z,27.30
2022-08-14T13:05:40.127Z,26.57
2022-08-14T13:08:37.756Z,26.44
2022-08-14T13:11:58.825Z,27.09
2022-08-14T13:15:12.588Z,26.81
2022-08-14T13:18:14.261Z,27.12
2022-08-14T13:21:14.550Z,26.22
2022-08-14T13:24:15.705Z,25.48
2022-08-14T13:27:13.018Z,25.87
2022-08-14T13:30:23.435Z,24.98
2022-08-14T13:33:21.868Z,25.16
2022-08-14T13:36:24.151Z,25.58
2022-08-14T13:39:36.677Z,25.68
2022-08-14T13:42:36.472Z,25.35
2022-08-14T13:45:59.929Z,25.78
2022-08-14T13:48:51.434Z,25.29
2022-08-14T13:51:54.332Z,26.00
2022-08-14T13:54:55.623Z,25.72
2022-08-14T13:58:03.182Z,25.06
2022-08-14T14:01:02.157Z,25.39
2022-08-14T14:04:05.195Z,25.15
2022-08-14T14:07:12.963Z,25.80
2022-08-14T14:10:10.246Z,26.09
2022-08-14T14:13:07.610Z,25.65
2022-08-14T14:16:06.275Z,26.15
2022-08-14T14:19:09.480Z,25.74
2022-08-14T14:22:07.269Z,26.21
2022-08-14T14:25:07.215Z,26.46
2022-08-14T14:28:04.493Z,26.19
2022-08-14T14:31:05.945Z,26.52
2022-08-14T14:34:12.575Z,26.63
2022-08-14T14:37:24.086Z,26.46
2022-08-14T14:40:54.821Z,26.56
2022-08-14T14:43:44.869Z,26.64
2022-08-14T14:46:51.009Z,26.85
2022-08-14T14:49:55.013Z,26.82
2022-08-14T14:52:53.989Z,26.69
2022-08-14T14:56:50.917Z,26.67
2022-08-14T14:59:27.918Z,27.10
2022-08-14T15:02:38.126Z,26.79
2022-08-14T15:05:35.966Z,26.83
2022-08-14T15:08:55.755Z,26.97
2022-08-14T15:11:50.170Z,26.54
2022-08-14T15:14:57.108Z,26.33
2022-08-14T15:17:55.122Z,26.30
2022-08-14T15:21:02.845Z,26.59
2022-08-14T15:23:59.752Z,26.69
2022-08-14T15:26:59.809Z,26.89
2022-08-14T15:29:56.895Z,27.06
2022-08-14T15:32:55.917Z,27.01
2022-08-14T15:35:53.408Z,26.63
2022-08-14T15:38:56.847Z,27.08
2022-08-14T15:41:53.670Z,27.02
2022-08-14T15:44:57.252Z,27.04
2022-08-14T15:47:56.399Z,27.19
2022-08-14T15:50:54.949Z,27.16
2022-08-14T15:53:51.872Z,27.25
2022-08-14T15:57:01.013Z,27.95
2022-08-14T16:00:21.387Z,28.29
2022-08-14T16:03:35.774Z,28.31
2022-08-14T16:06:34.295Z,28.29
2022-08-14T16:09:31.807Z,28.41
2022-08-14T16:12:40.322Z,27.42
2022-08-14T16:15:41.600Z,27.95
2022-08-14T16:18:51.069Z,27.82
2022-08-14T16:22:01.823Z,27.52
2022-08-14T16:25:08.355Z,27.31
2022-08-14T16:28:07.445Z,27.33
2022-08-14T16:31:07.603Z,27.08
2022-08-14T16:34:43.911Z,26.95
2022-08-14T16:40:25.497Z,26.96
2022-08-14T16:40:44.320Z,26.89
2022-08-14T16:43:44.116Z,26.82
2022-08-14T16:46:46.665Z,26.59
2022-08-14T16:50:04.754Z,26.60
2022-08-14T16:53:07.416Z,26.49
2022-08-14T16:56:23.295Z,26.35
2022-08-14T16:59:30.615Z,26.43
2022-08-14T17:02:42.925Z,26.46
2022-08-14T17:05:43.283Z,26.33
2022-08-14T17:08:46.285Z,26.22
2022-08-14T17:12:07.200Z,26.19
2022-08-14T17:15:11.173Z,26.27
2022-08-14T17:18:18.890Z,26.60
2022-08-14T17:21:37.346Z,26.18
2022-08-14T17:24:57.175Z,26.03
2022-08-14T17:28:52.161Z,25.84
2022-08-14T17:31:57.904Z,25.58
2022-08-14T17:34:54.439Z,25.31
2022-08-14T17:41:33.022Z,25.21
2022-08-14T17:44:45.185Z,24.99
2022-08-14T17:47:46.106Z,24.89
2022-08-14T17:51:00.342Z,24.75
2022-08-14T17:54:02.628Z,24.63
2022-08-14T17:57:10.434Z,24.54
2022-08-14T18:00:14.891Z,24.33
2022-08-14T18:03:20.195Z,24.54
2022-08-14T18:06:40.199Z,24.31
2022-08-14T18:09:57.143Z,24.05
2022-08-14T18:12:56.363Z,23.97
2022-08-14T18:15:55.952Z,24.54
2022-08-14T18:18:53.152Z,23.89
2022-08-14T18:21:57.441Z,23.92
2022-08-14T18:24:54.599Z,23.75
2022-08-14T18:27:52.813Z,23.51
2022-08-14T18:31:19.860Z,23.42
2022-08-14T18:34:31.849Z,23.01
2022-08-14T18:37:31.224Z,22.99
2022-08-14T18:40:35.179Z,23.07
2022-08-14T18:43:44.845Z,23.22
2022-08-14T18:47:08.470Z,23.03
2022-08-14T18:50:26.325Z,22.96
2022-08-14T18:53:34.370Z,22.83
2022-08-14T18:57:05.120Z,22.77
2022-08-14T19:00:33.810Z,22.97
2022-08-14T19:03:36.411Z,22.53
2022-08-14T19:06:44.612Z,22.59
2022-08-14T19:10:07.867Z,22.41
2022-08-14T19:13:11.825Z,22.27
2022-08-14T19:16:17.395Z,22.22
2022-08-14T19:19:15.510Z,22.36
2022-08-14T19:22:29.436Z,22.23
2022-08-14T19:25:51.656Z,22.24
2022-08-14T19:28:49.551Z,22.18
2022-08-14T19:31:55.731Z,22.20
2022-08-14T19:34:53.742Z,22.26
2022-08-14T19:37:57.083Z,22.05
2022-08-14T19:40:54.361Z,22.33
2022-08-14T19:43:57.050Z,22.10
2022-08-14T19:47:01.006Z,21.96
2022-08-14T19:50:07.704Z,21.78
2022-08-14T19:53:17.411Z,21.69
2022-08-14T19:56:15.245Z,21.72
2022-08-14T19:59:26.466Z,21.65
2022-08-14T20:02:37.442Z,21.69
2022-08-14T20:05:43.062Z,21.93
2022-08-14T20:11:00.561Z,22.10
2022-08-14T20:12:28.285Z,22.02
2022-08-14T20:15:47.405Z,22.03
2022-08-14T20:18:48.622Z,21.87
2022-08-14T20:22:00.800Z,21.80
2022-08-14T20:25:19.280Z,21.73
2022-08-14T20:28:29.713Z,21.78
2022-08-14T20:31:37.381Z,21.76
2022-08-14T20:34:38.694Z,21.46
2022-08-14T20:37:48.192Z,21.36
2022-08-14T20:40:59.831Z,21.29
2022-08-14T20:44:20.748Z,21.32
2022-08-14T20:47:18.785Z,20.95
2022-08-14T20:50:29.053Z,20.98
2022-08-14T20:53:35.475Z,21.02
2022-08-14T20:56:37.667Z,20.94
2022-08-14T20:59:43.486Z,20.98
2022-08-14T21:02:49.999Z,20.95
2022-08-14T21:05:47.847Z,20.91
2022-08-14T21:08:58.728Z,20.78
2022-08-14T21:12:02.853Z,20.73
2022-08-14T21:15:00.683Z,20.66
2022-08-14T21:17:57.748Z,20.72
2022-08-14T21:20:55.737Z,20.63
2022-08-14T21:23:56.464Z,20.71
2022-08-14T21:27:02.103Z,20.48
2022-08-14T21:30:09.797Z,20.57
2022-08-14T21:33:09.052Z,20.43
2022-08-14T21:36:12.134Z,20.31
2022-08-14T21:39:19.461Z,20.20
2022-08-14T21:42:17.417Z,20.27
2022-08-14T21:45:14.606Z,20.17
2022-08-14T21:48:13.392Z,20.47
2022-08-14T21:51:54.028Z,20.27
2022-08-14T21:54:49.423Z,20.21
2022-08-14T21:58:44.709Z,20.39
2022-08-14T22:01:06.461Z,20.66
2022-08-14T22:04:32.836Z,20.81
2022-08-14T22:07:29.082Z,20.75
2022-08-14T22:10:26.526Z,20.64
2022-08-14T22:13:32.375Z,20.61
2022-08-14T22:17:03.589Z,20.66
2022-08-14T22:19:47.405Z,20.63
2022-08-14T22:22:55.835Z,20.74
2022-08-14T22:25:55.113Z,20.65
2022-08-14T22:28:55.732Z,20.63
2022-08-14T22:31:54.269Z,20.76
2022-08-14T22:34:51.503Z,20.51
2022-08-14T22:37:48.806Z,20.51
2022-08-14T22:41:26.595Z,20.63
2022-08-14T22:44:39.115Z,20.53
2022-08-14T22:47:40.727Z,20.48
2022-08-14T22:50:48.840Z,20.54
2022-08-14T22:53:52.497Z,20.51
2022-08-14T22:56:50.705Z,20.50
2022-08-14T22:59:47.628Z,20.45
2022-08-14T23:02:46.427Z,20.43
2022-08-14T23:05:52.491Z,20.37
2022-08-14T23:09:00.190Z,20.32
2022-08-14T23:12:28.312Z,20.25
2022-08-14T23:15:29.807Z,20.08
2022-08-14T23:18:29.459Z,19.83
2022-08-14T23:21:28.802Z,20.05
2022-08-14T23:24:26.835Z,19.99
2022-08-14T23:27:31.696Z,19.91
2022-08-14T23:30:41.484Z,19.75
2022-08-14T23:33:52.116Z,19.68
2022-08-14T23:36:56.892Z,19.62
2022-08-14T23:39:54.401Z,19.44
2022-08-14T23:43:11.228Z,19.40
2022-08-14T23:46:13.097Z,19.23
2022-08-14T23:49:12.441Z,19.27
2022-08-14T23:52:51.192Z,19.32
2022-08-14T23:55:32.886Z,19.41
2022-08-14T23:58:30.209Z,19.36
